Time,TemperatureF,DewpointF,PressureIn,WindDirection,WindDirectionDegrees,WindSpeedMPH,WindSpeedGustMPH,Humidity,HourlyPrecipIn,Conditions,Clouds,dailyrainin,SoftwareType,DateUTC
2013-02-04 00:00:00,47.3,40.5,30.12,West,274,0.0,1.0,77,0.00,,,0.00,Wunderground v.1.15,2013-02-04 05:00:00,
2013-02-04 00:02:00,47.2,40.7,30.12,West,274,0.0,0.0,78,0.00,,,0.00,Wunderground v.1.15,2013-02-04 05:02:00,
2013-02-04 00:07:00,47.2,40.7,30.12,West,274,0.0,0.0,78,0.00,,,0.00,Wunderground v.1.15,2013-02-04 05:07:00,
2013-02-04 00:08:00,47.2,40.7,30.12,West,274,0.0,0.0,78,0.00,,,0.00,Wunderground v.1.15,2013-02-04 05:08:00,
2013-02-04 00:14:00,47.1,40.6,30.11,West,274,0.0,0.0,78,0.00,,,0.00,Wunderground v.1.15,2013-02-04 05:14:00,
2013-02-04 00:19:00,47.0,40.5,30.11,West,274,0.0,0.0,78,0.00,,,0.00,Wunderground v.1.15,2013-02-04 05:19:00,
2013-02-04 00:25:00,46.9,40.7,30.11,West,274,2.0,2.0,79,0.00,,,0.00,Wunderground v.1.15,2013-02-04 05:25:00,
2013-02-04 00:30:00,47.1,40.9,30.12,West,274,1.0,2.0,79,0.00,,,0.00,Wunderground v.1.15,2013-02-04 05:30:00,
2013-02-04 00:36:00,47.3,40.8,30.12,West,274,0.0,1.0,78,0.00,,,0.00,Wunderground v.1.15,2013-02-04 05:36:00,
2013-02-04 00:41:00,47.3,40.8,30.12,West,274,0.0,0.0,78,0.00,,,0.00,Wunderground v.1.15,2013-02-04 05:41:00,
2013-02-04 00:46:00,47.3,40.8,30.12,West,274,0.0,0.0,78,0.00,,,0.00,Wunderground v.1.15,2013-02-04 05:46:00,
2013-02-04 00:52:00,47.2,41.0,30.12,West,274,0.0,0.0,79,0.00,,,0.00,Wunderground v.1.15,2013-02-04 05:52:00,
2013-02-04 00:57:00,47.2,41.0,30.12,West,274,0.0,0.0,79,0.00,,,0.00,Wunderground v.1.15,2013-02-04 05:57:00,
2013-02-04 01:03:00,47.0,40.8,30.12,West,274,0.0,0.0,79,0.00,,,0.00,Wunderground v.1.15,2013-02-04 06:03:00,
2013-02-04 01:08:00,46.6,40.4,30.12,West,274,2.0,2.0,79,0.00,,,0.00,Wunderground v.1.15,2013-02-04 06:08:00,
2013-02-04 01:13:00,46.3,40.5,30.12,West,274,0.0,0.0,80,0.00,,,0.00,Wunderground v.1.15,2013-02-04 06:13:00,
2013-02-04 01:19:00,46.3,40.8,30.12,West,274,0.0,1.0,81,0.00,,,0.00,Wunderground v.1.15,2013-02-04 06:19:00,
2013-02-04 01:24:00,46.4,40.9,30.12,West,274,0.0,0.0,81,0.00,,,0.00,Wunderground v.1.15,2013-02-04 06:24:00,
2013-02-04 01:29:00,46.4,40.9,30.12,West,274,0.0,0.0,81,0.00,,,0.00,Wunderground v.1.15,2013-02-04 06:29:00,
2013-02-04 01:35:00,46.4,40.9,30.12,West,274,0.0,0.0,81,0.00,,,0.00,Wunderground v.1.15,2013-02-04 06:35:00,
2013-02-04 01:41:00,46.0,40.5,30.12,West,274,0.0,0.0,81,0.00,,,0.00,Wunderground v.1.15,2013-02-04 06:41:00,
2013-02-04 01:46:00,45.6,40.4,30.12,West,274,0.0,0.0,82,0.00,,,0.00,Wunderground v.1.15,2013-02-04 06:46:00,
2013-02-04 01:51:00,45.2,40.3,30.12,West,274,0.0,0.0,83,0.00,,,0.00,Wunderground v.1.15,2013-02-04 06:51:00,
2013-02-04 01:57:00,45.0,40.5,30.12,West,274,0.0,0.0,84,0.00,,,0.00,Wunderground v.1.15,2013-02-04 06:57:00,
2013-02-04 02:02:00,45.1,41.2,30.11,West,274,0.0,2.0,86,0.00,,,0.00,Wunderground v.1.15,2013-02-04 07:02:00,
2013-02-04 02:07:00,45.4,41.5,30.11,West,274,1.0,2.0,86,0.00,,,0.00,Wunderground v.1.15,2013-02-04 07:07:00,
2013-02-04 02:12:00,45.7,41.8,30.11,West,274,0.0,2.0,86,0.00,,,0.00,Wunderground v.1.15,2013-02-04 07:12:00,
2013-02-04 02:17:00,46.0,42.0,30.11,West,274,0.0,2.0,86,0.00,,,0.00,Wunderground v.1.15,2013-02-04 07:17:00,
2013-02-04 02:22:00,46.2,42.2,30.11,West,274,0.0,2.0,86,0.00,,,0.00,Wunderground v.1.15,2013-02-04 07:22:00,
2013-02-04 02:27:00,46.4,42.4,30.11,West,274,0.0,2.0,86,0.00,,,0.00,Wunderground v.1.15,2013-02-04 07:27:00,
2013-02-04 02:32:00,46.6,42.6,30.11,West,278,0.0,1.0,86,0.00,,,0.00,Wunderground v.1.15,2013-02-04 07:32:00,
2013-02-04 02:37:00,46.7,42.7,30.11,West,278,0.0,2.0,86,0.00,,,0.00,Wunderground v.1.15,2013-02-04 07:37:00,
2013-02-04 02:42:00,46.8,42.8,30.11,NNW,329,0.0,1.0,86,0.00,,,0.00,Wunderground v.1.15,2013-02-04 07:42:00,
2013-02-04 02:47:00,46.9,42.9,30.11,NE,47,0.0,5.0,86,0.00,,,0.00,Wunderground v.1.15,2013-02-04 07:47:00,
2013-02-04 02:52:00,46.9,42.9,30.11,NE,47,0.0,0.0,86,0.00,,,0.00,Wunderground v.1.15,2013-02-04 07:52:00,
2013-02-04 02:57:00,46.9,42.9,30.11,NE,47,0.0,2.0,86,0.00,,,0.00,Wunderground v.1.15,2013-02-04 07:57:00,
2013-02-04 03:02:00,46.9,42.9,30.11,NE,47,0.0,0.0,86,0.00,,,0.00,Wunderground v.1.15,2013-02-04 08:02:00,
2013-02-04 03:08:00,46.8,42.8,30.11,NE,47,0.0,1.0,86,0.00,,,0.00,Wunderground v.1.15,2013-02-04 08:08:00,
2013-02-04 03:13:00,46.6,42.6,30.11,NE,47,0.0,0.0,86,0.00,,,0.00,Wunderground v.1.15,2013-02-04 08:13:00,
2013-02-04 03:18:00,46.4,42.7,30.11,NE,47,0.0,0.0,87,0.00,,,0.00,Wunderground v.1.15,2013-02-04 08:18:00,
2013-02-04 03:23:00,46.3,42.6,30.11,NE,47,0.0,1.0,87,0.00,,,0.00,Wunderground v.1.15,2013-02-04 08:23:00,
2013-02-04 03:28:00,46.4,43.0,30.11,NE,47,0.0,1.0,88,0.00,,,0.00,Wunderground v.1.15,2013-02-04 08:28:00,
2013-02-04 03:33:00,46.5,43.1,30.11,NE,47,0.0,1.0,88,0.00,,,0.00,Wunderground v.1.15,2013-02-04 08:33:00,
2013-02-04 03:38:00,46.5,43.1,30.11,NE,47,0.0,2.0,88,0.00,,,0.00,Wunderground v.1.15,2013-02-04 08:38:00,
2013-02-04 03:43:00,46.6,43.2,30.11,NE,47,0.0,0.0,88,0.00,,,0.00,Wunderground v.1.15,2013-02-04 08:43:00,
2013-02-04 03:48:00,46.6,43.2,30.11,NE,47,1.0,3.0,88,0.00,,,0.00,Wunderground v.1.15,2013-02-04 08:48:00,
2013-02-04 03:53:00,46.7,43.6,30.11,NE,47,0.0,1.0,89,0.00,,,0.00,Wunderground v.1.15,2013-02-04 08:53:00,
2013-02-04 03:58:00,46.8,43.7,30.11,NE,47,0.0,2.0,89,0.00,,,0.00,Wunderground v.1.15,2013-02-04 08:58:00,
2013-02-04 04:03:00,47.0,43.9,30.11,NE,47,0.0,1.0,89,0.00,,,0.00,Wunderground v.1.15,2013-02-04 09:03:00,
2013-02-04 04:08:00,47.0,43.6,30.11,NE,47,0.0,3.0,88,0.00,,,0.00,Wunderground v.1.15,2013-02-04 09:08:00,
2013-02-04 04:13:00,47.1,43.7,30.11,NE,47,0.0,1.0,88,0.00,,,0.00,Wunderground v.1.15,2013-02-04 09:13:00,
2013-02-04 04:18:00,47.2,43.8,30.11,NE,47,0.0,1.0,88,0.00,,,0.00,Wunderground v.1.15,2013-02-04 09:18:00,
2013-02-04 04:23:00,47.3,43.9,30.11,NE,47,0.0,1.0,88,0.00,,,0.00,Wunderground v.1.15,2013-02-04 09:23:00,
2013-02-04 04:28:00,47.3,43.9,30.11,NE,47,0.0,1.0,88,0.00,,,0.00,Wunderground v.1.15,2013-02-04 09:28:00,
2013-02-04 04:33:00,47.3,43.9,30.11,NE,47,0.0,1.0,88,0.00,,,0.00,Wunderground v.1.15,2013-02-04 09:33:00,
2013-02-04 04:38:00,47.5,44.1,30.12,NE,47,0.0,2.0,88,0.00,,,0.00,Wunderground v.1.15,2013-02-04 09:38:00,
2013-02-04 04:43:00,47.4,44.0,30.12,NE,47,0.0,1.0,88,0.00,,,0.00,Wunderground v.1.15,2013-02-04 09:43:00,
2013-02-04 04:48:00,47.2,43.8,30.12,NE,47,0.0,1.0,88,0.00,,,0.00,Wunderground v.1.15,2013-02-04 09:48:00,
2013-02-04 04:53:00,47.1,44.0,30.12,NE,47,0.0,1.0,89,0.00,,,0.00,Wunderground v.1.15,2013-02-04 09:53:00,
2013-02-04 04:58:00,47.0,44.2,30.12,NE,47,0.0,1.0,90,0.00,,,0.00,Wunderground v.1.15,2013-02-04 09:58:00,
2013-02-04 05:03:00,46.7,43.9,30.12,NE,47,0.0,0.0,90,0.00,,,0.00,Wunderground v.1.15,2013-02-04 10:03:00,
2013-02-04 05:08:00,46.4,43.6,30.12,NE,47,0.0,0.0,90,0.00,,,0.00,Wunderground v.1.15,2013-02-04 10:08:00,
2013-02-04 05:13:00,46.1,43.3,30.11,NE,47,0.0,0.0,90,0.00,,,0.00,Wunderground v.1.15,2013-02-04 10:13:00,
2013-02-04 05:18:00,46.0,43.2,30.12,NE,47,0.0,0.0,90,0.00,,,0.00,Wunderground v.1.15,2013-02-04 10:18:00,
2013-02-04 05:23:00,45.7,42.9,30.11,NE,47,0.0,0.0,90,0.00,,,0.00,Wunderground v.1.15,2013-02-04 10:23:00,
2013-02-04 05:28:00,45.2,42.2,30.11,NE,47,0.0,0.0,89,0.00,,,0.00,Wunderground v.1.15,2013-02-04 10:28:00,
2013-02-04 05:33:00,44.8,42.0,30.12,NE,47,0.0,0.0,90,0.00,,,0.00,Wunderground v.1.15,2013-02-04 10:33:00,
2013-02-04 05:38:00,44.8,42.3,30.12,NE,47,0.0,0.0,91,0.00,,,0.00,Wunderground v.1.15,2013-02-04 10:38:00,
2013-02-04 05:43:00,44.9,42.4,30.12,NE,47,0.0,0.0,91,0.00,,,0.00,Wunderground v.1.15,2013-02-04 10:43:00,
2013-02-04 05:48:00,45.0,42.8,30.12,NE,47,0.0,0.0,92,0.00,,,0.00,Wunderground v.1.15,2013-02-04 10:48:00,
2013-02-04 05:53:00,44.9,42.4,30.12,NE,47,0.0,0.0,91,0.00,,,0.00,Wunderground v.1.15,2013-02-04 10:53:00,
2013-02-04 05:58:00,44.9,42.4,30.12,NE,47,0.0,0.0,91,0.00,,,0.00,Wunderground v.1.15,2013-02-04 10:58:00,
2013-02-04 06:03:00,44.9,42.7,30.13,NE,47,0.0,0.0,92,0.00,,,0.00,Wunderground v.1.15,2013-02-04 11:03:00,
2013-02-04 06:08:00,44.9,42.7,30.13,NE,47,0.0,0.0,92,0.00,,,0.00,Wunderground v.1.15,2013-02-04 11:08:00,
2013-02-04 06:13:00,44.8,42.6,30.12,NE,47,0.0,0.0,92,0.00,,,0.00,Wunderground v.1.15,2013-02-04 11:13:00,
2013-02-04 06:18:00,44.7,42.5,30.12,NE,47,0.0,0.0,92,0.00,,,0.00,Wunderground v.1.15,2013-02-04 11:18:00,
2013-02-04 06:23:00,44.4,42.2,30.13,NE,47,0.0,0.0,92,0.00,,,0.00,Wunderground v.1.15,2013-02-04 11:23:00,
2013-02-04 06:28:00,44.2,42.0,30.12,NE,47,0.0,0.0,92,0.00,,,0.00,Wunderground v.1.15,2013-02-04 11:28:00,
2013-02-04 06:34:00,44.0,41.8,30.12,NE,47,0.0,0.0,92,0.00,,,0.00,Wunderground v.1.15,2013-02-04 11:34:00,
2013-02-04 06:38:00,43.8,41.6,30.12,NE,47,0.0,0.0,92,0.00,,,0.00,Wunderground v.1.15,2013-02-04 11:38:00,
2013-02-04 06:44:00,43.6,41.4,30.12,NE,47,0.0,0.0,92,0.00,,,0.00,Wunderground v.1.15,2013-02-04 11:44:00,
2013-02-04 06:49:00,43.3,41.1,30.12,NE,47,0.0,0.0,92,0.00,,,0.00,Wunderground v.1.15,2013-02-04 11:49:00,
2013-02-04 06:54:00,43.1,40.9,30.12,NE,47,0.0,0.0,92,0.00,,,0.00,Wunderground v.1.15,2013-02-04 11:54:00,
2013-02-04 06:59:00,42.4,40.2,30.12,NE,47,0.0,1.0,92,0.00,,,0.00,Wunderground v.1.15,2013-02-04 11:59:00,
2013-02-04 07:04:00,42.1,40.2,30.12,NE,47,0.0,0.0,93,0.00,,,0.00,Wunderground v.1.15,2013-02-04 12:04:00,
2013-02-04 07:09:00,42.5,40.9,30.12,NE,47,0.0,0.0,94,0.00,,,0.00,Wunderground v.1.15,2013-02-04 12:09:00,
2013-02-04 07:14:00,43.0,41.4,30.12,NE,47,0.0,0.0,94,0.00,,,0.00,Wunderground v.1.15,2013-02-04 12:14:00,
2013-02-04 07:19:00,43.8,42.5,30.13,NE,47,0.0,1.0,95,0.00,,,0.00,Wunderground v.1.15,2013-02-04 12:19:00,
2013-02-04 07:24:00,44.3,43.0,30.12,NE,47,0.0,0.0,95,0.00,,,0.00,Wunderground v.1.15,2013-02-04 12:24:00,
2013-02-04 07:29:00,44.5,43.2,30.12,NE,47,0.0,0.0,95,0.00,,,0.00,Wunderground v.1.15,2013-02-04 12:29:00,
2013-02-04 07:34:00,44.5,42.9,30.13,NE,47,0.0,0.0,94,0.00,,,0.00,Wunderground v.1.15,2013-02-04 12:34:00,
2013-02-04 07:39:00,44.3,42.7,30.13,NE,47,0.0,0.0,94,0.00,,,0.00,Wunderground v.1.15,2013-02-04 12:39:00,
2013-02-04 07:44:00,44.3,42.7,30.13,NE,47,0.0,0.0,94,0.00,,,0.00,Wunderground v.1.15,2013-02-04 12:44:00,
2013-02-04 07:49:00,44.3,42.7,30.13,NE,47,0.0,0.0,94,0.00,,,0.00,Wunderground v.1.15,2013-02-04 12:49:00,
2013-02-04 07:54:00,44.4,42.8,30.13,NE,47,0.0,0.0,94,0.00,,,0.00,Wunderground v.1.15,2013-02-04 12:54:00,
2013-02-04 07:59:00,44.5,42.9,30.13,NE,47,0.0,0.0,94,0.00,,,0.00,Wunderground v.1.15,2013-02-04 12:59:00,
2013-02-04 08:04:00,44.6,43.0,30.14,NE,47,0.0,0.0,94,0.00,,,0.00,Wunderground v.1.15,2013-02-04 13:04:00,
2013-02-04 08:09:00,44.8,43.2,30.14,NE,47,0.0,0.0,94,0.00,,,0.00,Wunderground v.1.15,2013-02-04 13:09:00,
2013-02-04 08:14:00,44.9,43.3,30.13,NE,47,0.0,0.0,94,0.00,,,0.00,Wunderground v.1.15,2013-02-04 13:14:00,
2013-02-04 08:19:00,44.9,43.3,30.13,NE,47,0.0,1.0,94,0.00,,,0.00,Wunderground v.1.15,2013-02-04 13:19:00,
2013-02-04 08:25:00,45.1,43.5,30.13,NE,47,0.0,0.0,94,0.00,,,0.00,Wunderground v.1.15,2013-02-04 13:25:00,
2013-02-04 08:30:00,45.4,43.8,30.13,NE,47,0.0,0.0,94,0.00,,,0.00,Wunderground v.1.15,2013-02-04 13:30:00,
2013-02-04 08:35:00,45.5,43.9,30.14,NE,47,0.0,0.0,94,0.00,,,0.00,Wunderground v.1.15,2013-02-04 13:35:00,
2013-02-04 08:40:00,45.7,44.1,30.14,NE,47,0.0,0.0,94,0.00,,,0.00,Wunderground v.1.15,2013-02-04 13:40:00,
2013-02-04 08:45:00,46.1,44.5,30.14,NE,47,0.0,0.0,94,0.00,,,0.00,Wunderground v.1.15,2013-02-04 13:45:00,
2013-02-04 08:50:00,46.6,45.0,30.14,NE,47,0.0,1.0,94,0.00,,,0.00,Wunderground v.1.15,2013-02-04 13:50:00,
2013-02-04 08:55:00,47.2,45.6,30.14,NE,47,0.0,0.0,94,0.00,,,0.00,Wunderground v.1.15,2013-02-04 13:55:00,
2013-02-04 09:00:00,47.7,46.1,30.15,NE,47,0.0,0.0,94,0.00,,,0.00,Wunderground v.1.15,2013-02-04 14:00:00,
2013-02-04 09:05:00,48.0,46.1,30.14,NE,47,0.0,0.0,93,0.00,,,0.00,Wunderground v.1.15,2013-02-04 14:05:00,
2013-02-04 09:10:00,48.5,46.6,30.14,NE,47,0.0,0.0,93,0.00,,,0.00,Wunderground v.1.15,2013-02-04 14:10:00,
2013-02-04 09:15:00,49.2,47.0,30.14,NE,47,2.0,3.0,92,0.00,,,0.00,Wunderground v.1.15,2013-02-04 14:15:00,
2013-02-04 09:20:00,50.3,47.2,30.13,NE,47,1.0,4.0,89,0.00,,,0.00,Wunderground v.1.15,2013-02-04 14:20:00,
2013-02-04 09:25:00,51.2,47.8,30.14,NE,47,0.0,2.0,88,0.00,,,0.00,Wunderground v.1.15,2013-02-04 14:25:00,
2013-02-04 09:30:00,51.5,47.8,30.14,NE,47,0.0,2.0,87,0.00,,,0.00,Wunderground v.1.15,2013-02-04 14:30:00,
2013-02-04 09:35:00,51.9,47.5,30.15,NE,47,0.0,1.0,85,0.00,,,0.00,Wunderground v.1.15,2013-02-04 14:35:00,
2013-02-04 09:41:00,52.6,47.6,30.15,NE,47,0.0,1.0,83,0.00,,,0.00,Wunderground v.1.15,2013-02-04 14:41:00,
2013-02-04 09:46:00,53.6,47.6,30.15,NE,47,2.0,4.0,80,0.00,,,0.00,Wunderground v.1.15,2013-02-04 14:46:00,
2013-02-04 09:51:00,54.5,45.7,30.15,NE,47,1.0,4.0,72,0.00,,,0.00,Wunderground v.1.15,2013-02-04 14:51:00,
2013-02-04 09:56:00,55.0,45.8,30.16,NE,47,1.0,3.0,71,0.00,,,0.00,Wunderground v.1.15,2013-02-04 14:56:00,
2013-02-04 10:01:00,55.7,45.7,30.16,NE,47,0.0,3.0,69,0.00,,,0.00,Wunderground v.1.15,2013-02-04 15:01:00,
2013-02-04 10:06:00,56.9,45.3,30.16,NE,47,2.0,4.0,65,0.00,,,0.00,Wunderground v.1.15,2013-02-04 15:06:00,
2013-02-04 10:11:00,57.8,43.1,30.16,ENE,60,0.0,6.0,58,0.00,,,0.00,Wunderground v.1.15,2013-02-04 15:11:00,
2013-02-04 10:16:00,58.2,43.0,30.16,ENE,65,5.0,6.0,57,0.00,,,0.00,Wunderground v.1.15,2013-02-04 15:16:00,
2013-02-04 10:21:00,58.9,43.7,30.15,ENE,65,3.0,6.0,57,0.00,,,0.00,Wunderground v.1.15,2013-02-04 15:21:00,
2013-02-04 10:26:00,59.1,43.9,30.15,ENE,66,0.0,6.0,57,0.00,,,0.00,Wunderground v.1.15,2013-02-04 15:26:00,
2013-02-04 10:31:00,59.7,43.5,30.16,ENE,65,1.0,6.0,55,0.00,,,0.00,Wunderground v.1.15,2013-02-04 15:31:00,
2013-02-04 10:36:00,60.3,43.6,30.15,NE,49,0.0,5.0,54,0.00,,,0.00,Wunderground v.1.15,2013-02-04 15:36:00,
2013-02-04 10:41:00,61.2,42.4,30.15,NE,45,0.0,1.0,50,0.00,,,0.00,Wunderground v.1.15,2013-02-04 15:41:00,
2013-02-04 10:46:00,61.4,42.6,30.15,NE,45,1.0,2.0,50,0.00,,,0.00,Wunderground v.1.15,2013-02-04 15:46:00,
2013-02-04 10:51:00,61.1,39.0,30.15,NE,45,0.0,1.0,44,0.00,,,0.00,Wunderground v.1.15,2013-02-04 15:51:00,
2013-02-04 10:56:00,61.0,40.1,30.15,NE,45,1.0,3.0,46,0.00,,,0.00,Wunderground v.1.15,2013-02-04 15:56:00,
2013-02-04 11:01:00,61.1,40.7,30.15,NE,45,1.0,1.0,47,0.00,,,0.00,Wunderground v.1.15,2013-02-04 16:01:00,
2013-02-04 11:06:00,61.2,40.8,30.15,NE,47,0.0,4.0,47,0.00,,,0.00,Wunderground v.1.15,2013-02-04 16:06:00,
2013-02-04 11:11:00,61.9,42.0,30.15,SE,132,4.0,5.0,48,0.00,,,0.00,Wunderground v.1.15,2013-02-04 16:11:00,
2013-02-04 11:16:00,62.4,41.3,30.15,ENE,71,0.0,7.0,46,0.00,,,0.00,Wunderground v.1.15,2013-02-04 16:16:00,
2013-02-04 11:21:00,63.0,39.5,30.14,East,84,0.0,2.0,42,0.00,,,0.00,Wunderground v.1.15,2013-02-04 16:21:00,
2013-02-04 11:26:00,63.6,38.2,30.14,ENE,70,1.0,3.0,39,0.00,,,0.00,Wunderground v.1.15,2013-02-04 16:26:00,
2013-02-04 11:31:00,63.8,38.4,30.14,East,81,2.0,2.0,39,0.00,,,0.00,Wunderground v.1.15,2013-02-04 16:31:00,
2013-02-04 11:36:00,64.0,37.9,30.13,East,81,2.0,3.0,38,0.00,,,0.00,Wunderground v.1.15,2013-02-04 16:36:00,
2013-02-04 11:41:00,64.4,37.5,30.13,East,86,0.0,0.0,37,0.00,,,0.00,Wunderground v.1.15,2013-02-04 16:41:00,
2013-02-04 11:46:00,65.2,38.9,30.13,East,86,0.0,2.0,38,0.00,,,0.00,Wunderground v.1.15,2013-02-04 16:46:00,
2013-02-04 11:51:00,65.9,36.7,30.12,East,91,0.0,2.0,34,0.00,,,0.00,Wunderground v.1.15,2013-02-04 16:51:00,
2013-02-04 11:56:00,65.8,35.9,30.12,ENE,57,1.0,5.0,33,0.00,,,0.00,Wunderground v.1.15,2013-02-04 16:56:00,
2013-02-04 12:02:00,65.8,36.6,30.12,ENE,73,3.0,3.0,34,0.00,,,0.00,Wunderground v.1.15,2013-02-04 17:02:00,
2013-02-04 12:07:00,65.7,37.3,30.12,SSW,200,1.0,4.0,35,0.00,,,0.00,Wunderground v.1.15,2013-02-04 17:07:00,
2013-02-04 12:12:00,65.8,38.1,30.12,SSW,207,1.0,5.0,36,0.00,,,0.00,Wunderground v.1.15,2013-02-04 17:12:00,
2013-02-04 12:17:00,66.1,38.4,30.12,South,186,0.0,5.0,36,0.00,,,0.00,Wunderground v.1.15,2013-02-04 17:17:00,
2013-02-04 12:22:00,66.3,37.1,30.11,ENE,65,5.0,5.0,34,0.00,,,0.00,Wunderground v.1.15,2013-02-04 17:22:00,
2013-02-04 12:27:00,65.9,36.0,30.11,NW,320,1.0,5.0,33,0.00,,,0.00,Wunderground v.1.15,2013-02-04 17:27:00,
2013-02-04 12:32:00,66.5,38.7,30.11,South,186,2.0,3.0,36,0.00,,,0.00,Wunderground v.1.15,2013-02-04 17:32:00,
2013-02-04 12:37:00,66.1,37.6,30.11,South,181,1.0,6.0,35,0.00,,,0.00,Wunderground v.1.15,2013-02-04 17:37:00,
2013-02-04 12:42:00,65.8,38.8,30.11,SSW,194,1.0,3.0,37,0.00,,,0.00,Wunderground v.1.15,2013-02-04 17:42:00,
2013-02-04 12:47:00,65.9,37.5,30.11,ENE,71,3.0,5.0,35,0.00,,,0.00,Wunderground v.1.15,2013-02-04 17:47:00,
2013-02-04 12:52:00,65.6,37.9,30.11,ENE,71,4.0,4.0,36,0.00,,,0.00,Wunderground v.1.15,2013-02-04 17:52:00,
2013-02-04 12:57:00,66.1,39.7,30.10,WNW,298,0.0,4.0,38,0.00,,,0.00,Wunderground v.1.15,2013-02-04 17:57:00,
2013-02-04 13:02:00,66.8,39.0,30.09,WNW,296,1.0,2.0,36,0.00,,,0.00,Wunderground v.1.15,2013-02-04 18:02:00,
2013-02-04 13:07:00,66.8,39.0,30.09,WNW,296,2.0,3.0,36,0.00,,,0.00,Wunderground v.1.15,2013-02-04 18:07:00,
2013-02-04 13:12:00,66.4,39.3,30.08,South,190,1.0,2.0,37,0.00,,,0.00,Wunderground v.1.15,2013-02-04 18:12:00,
2013-02-04 13:17:00,66.8,38.3,30.08,East,95,4.0,4.0,35,0.00,,,0.00,Wunderground v.1.15,2013-02-04 18:17:00,
2013-02-04 13:22:00,67.3,40.8,30.08,SSW,210,3.0,5.0,38,0.00,,,0.00,Wunderground v.1.15,2013-02-04 18:22:00,
2013-02-04 13:27:00,67.4,42.2,30.07,SSW,209,2.0,5.0,40,0.00,,,0.00,Wunderground v.1.15,2013-02-04 18:27:00,
2013-02-04 13:32:00,67.7,41.2,30.08,SSW,209,3.0,6.0,38,0.00,,,0.00,Wunderground v.1.15,2013-02-04 18:32:00,
2013-02-04 13:37:00,68.0,43.4,30.07,SSW,209,4.0,6.0,41,0.00,,,0.00,Wunderground v.1.15,2013-02-04 18:37:00,
2013-02-04 13:42:00,68.3,42.4,30.07,WSW,238,3.0,5.0,39,0.00,,,0.00,Wunderground v.1.15,2013-02-04 18:42:00,
2013-02-04 13:47:00,68.1,42.2,30.07,SW,232,3.0,7.0,39,0.00,,,0.00,Wunderground v.1.15,2013-02-04 18:47:00,
2013-02-04 13:52:00,68.6,41.3,30.07,SW,227,2.0,5.0,37,0.00,,,0.00,Wunderground v.1.15,2013-02-04 18:52:00,
2013-02-04 13:57:00,68.5,39.8,30.06,SW,233,3.0,5.0,35,0.00,,,0.00,Wunderground v.1.15,2013-02-04 18:57:00,
2013-02-04 14:02:00,67.9,42.0,30.06,WSW,239,5.0,6.0,39,0.00,,,0.00,Wunderground v.1.15,2013-02-04 19:02:00,
2013-02-04 14:07:00,68.1,41.5,30.06,SW,220,3.0,6.0,38,0.00,,,0.00,Wunderground v.1.15,2013-02-04 19:07:00,
2013-02-04 14:12:00,67.5,41.0,30.06,WSW,239,4.0,5.0,38,0.00,,,0.00,Wunderground v.1.15,2013-02-04 19:12:00,
2013-02-04 14:17:00,67.5,42.3,30.06,SW,235,3.0,6.0,40,0.00,,,0.00,Wunderground v.1.15,2013-02-04 19:17:00,
2013-02-04 14:22:00,67.7,41.2,30.06,WSW,237,3.0,4.0,38,0.00,,,0.00,Wunderground v.1.15,2013-02-04 19:22:00,
2013-02-04 14:27:00,68.0,42.1,30.06,SW,225,3.0,5.0,39,0.00,,,0.00,Wunderground v.1.15,2013-02-04 19:27:00,
2013-02-04 14:32:00,68.9,40.8,30.06,SW,230,1.0,3.0,36,0.00,,,0.00,Wunderground v.1.15,2013-02-04 19:32:00,
2013-02-04 14:37:00,69.2,40.4,30.06,WSW,239,4.0,5.0,35,0.00,,,0.00,Wunderground v.1.15,2013-02-04 19:37:00,
2013-02-04 14:43:00,69.0,39.4,30.06,WSW,238,3.0,5.0,34,0.00,,,0.00,Wunderground v.1.15,2013-02-04 19:43:00,
2013-02-04 14:48:00,68.5,40.5,30.06,WSW,238,2.0,5.0,36,0.00,,,0.00,Wunderground v.1.15,2013-02-04 19:48:00,
2013-02-04 14:53:00,69.3,40.5,30.05,WSW,238,0.0,3.0,35,0.00,,,0.00,Wunderground v.1.15,2013-02-04 19:53:00,
2013-02-04 14:58:00,68.4,38.2,30.06,WSW,238,1.0,3.0,33,0.00,,,0.00,Wunderground v.1.15,2013-02-04 19:58:00,
2013-02-04 15:03:00,67.9,37.7,30.06,WSW,238,2.0,3.0,33,0.00,,,0.00,Wunderground v.1.15,2013-02-04 20:03:00,
2013-02-04 15:08:00,67.5,38.1,30.05,WSW,238,0.0,3.0,34,0.00,,,0.00,Wunderground v.1.15,2013-02-04 20:08:00,
2013-02-04 15:13:00,67.0,37.7,30.05,WSW,238,2.0,3.0,34,0.00,,,0.00,Wunderground v.1.15,2013-02-04 20:13:00,
2013-02-04 15:18:00,67.5,40.3,30.06,WSW,238,2.0,3.0,37,0.00,,,0.00,Wunderground v.1.15,2013-02-04 20:18:00,
2013-02-04 15:23:00,67.7,39.8,30.06,WSW,238,0.0,1.0,36,0.00,,,0.00,Wunderground v.1.15,2013-02-04 20:23:00,
2013-02-04 15:28:00,67.6,39.0,30.05,WSW,238,3.0,4.0,35,0.00,,,0.00,Wunderground v.1.15,2013-02-04 20:28:00,
2013-02-04 15:33:00,67.0,38.4,30.06,WSW,238,0.0,3.0,35,0.00,,,0.00,Wunderground v.1.15,2013-02-04 20:33:00,
2013-02-04 15:38:00,66.8,37.5,30.06,WSW,238,0.0,3.0,34,0.00,,,0.00,Wunderground v.1.15,2013-02-04 20:38:00,
2013-02-04 15:43:00,66.9,39.1,30.05,WSW,238,0.0,1.0,36,0.00,,,0.00,Wunderground v.1.15,2013-02-04 20:43:00,
2013-02-04 15:48:00,66.9,40.5,30.06,WSW,238,2.0,2.0,38,0.00,,,0.00,Wunderground v.1.15,2013-02-04 20:48:00,
2013-02-04 15:53:00,66.8,40.4,30.06,WSW,238,0.0,1.0,38,0.00,,,0.00,Wunderground v.1.15,2013-02-04 20:53:00,
2013-02-04 15:58:00,67.0,39.1,30.06,WSW,238,1.0,1.0,36,0.00,,,0.00,Wunderground v.1.15,2013-02-04 20:58:00,
2013-02-04 16:03:00,66.9,39.8,30.06,WSW,238,0.0,1.0,37,0.00,,,0.00,Wunderground v.1.15,2013-02-04 21:03:00,
2013-02-04 16:08:00,66.8,40.4,30.06,WSW,238,0.0,1.0,38,0.00,,,0.00,Wunderground v.1.15,2013-02-04 21:08:00,
2013-02-04 16:13:00,66.8,40.4,30.06,WSW,238,0.0,0.0,38,0.00,,,0.00,Wunderground v.1.15,2013-02-04 21:13:00,
2013-02-04 16:18:00,66.9,41.1,30.06,WSW,238,0.0,1.0,39,0.00,,,0.00,Wunderground v.1.15,2013-02-04 21:18:00,
2013-02-04 16:23:00,66.8,38.3,30.06,WSW,238,0.0,0.0,35,0.00,,,0.00,Wunderground v.1.15,2013-02-04 21:23:00,
2013-02-04 16:28:00,66.9,38.3,30.06,WSW,238,0.0,0.0,35,0.00,,,0.00,Wunderground v.1.15,2013-02-04 21:28:00,
2013-02-04 16:33:00,66.9,38.3,30.07,WSW,238,0.0,0.0,35,0.00,,,0.00,Wunderground v.1.15,2013-02-04 21:33:00,
2013-02-04 16:38:00,66.7,37.4,30.07,WSW,238,0.0,0.0,34,0.00,,,0.00,Wunderground v.1.15,2013-02-04 21:38:00,
2013-02-04 16:43:00,66.8,39.0,30.07,WSW,238,0.0,0.0,36,0.00,,,0.00,Wunderground v.1.15,2013-02-04 21:43:00,
2013-02-04 16:48:00,66.8,39.7,30.06,WSW,238,0.0,0.0,37,0.00,,,0.00,Wunderground v.1.15,2013-02-04 21:48:00,
2013-02-04 16:54:00,66.7,38.2,30.06,WSW,238,0.0,0.0,35,0.00,,,0.00,Wunderground v.1.15,2013-02-04 21:54:00,
2013-02-04 16:59:00,66.7,38.2,30.06,WSW,238,0.0,0.0,35,0.00,,,0.00,Wunderground v.1.15,2013-02-04 21:59:00,
2013-02-04 17:04:00,66.7,39.6,30.06,WSW,238,0.0,0.0,37,0.00,,,0.00,Wunderground v.1.15,2013-02-04 22:04:00,
2013-02-04 17:09:00,66.7,37.4,30.06,WSW,238,0.0,0.0,34,0.00,,,0.00,Wunderground v.1.15,2013-02-04 22:09:00,
2013-02-04 17:14:00,66.8,38.3,30.06,WSW,238,0.0,0.0,35,0.00,,,0.00,Wunderground v.1.15,2013-02-04 22:14:00,
2013-02-04 17:19:00,66.9,39.1,30.06,WSW,238,0.0,0.0,36,0.00,,,0.00,Wunderground v.1.15,2013-02-04 22:19:00,
2013-02-04 17:24:00,67.4,40.2,30.07,WSW,238,0.0,0.0,37,0.00,,,0.00,Wunderground v.1.15,2013-02-04 22:24:00,
2013-02-04 17:29:00,67.6,41.7,30.07,WSW,240,3.0,3.0,39,0.00,,,0.00,Wunderground v.1.15,2013-02-04 22:29:00,
2013-02-04 17:34:00,66.8,39.7,30.07,NE,46,0.0,3.0,37,0.00,,,0.00,Wunderground v.1.15,2013-02-04 22:34:00,
2013-02-04 17:39:00,66.6,39.5,30.07,NE,46,0.0,3.0,37,0.00,,,0.00,Wunderground v.1.15,2013-02-04 22:39:00,
2013-02-04 17:44:00,66.5,40.1,30.06,NE,46,0.0,1.0,38,0.00,,,0.00,Wunderground v.1.15,2013-02-04 22:44:00,
2013-02-04 17:49:00,66.4,40.0,30.06,NE,46,0.0,1.0,38,0.00,,,0.00,Wunderground v.1.15,2013-02-04 22:49:00,
2013-02-04 17:54:00,66.0,39.7,30.06,NE,46,0.0,0.0,38,0.00,,,0.00,Wunderground v.1.15,2013-02-04 22:54:00,
2013-02-04 17:59:00,65.4,40.4,30.06,NE,46,0.0,1.0,40,0.00,,,0.00,Wunderground v.1.15,2013-02-04 22:59:00,
2013-02-04 18:04:00,64.7,39.8,30.07,NE,46,0.0,0.0,40,0.00,,,0.00,Wunderground v.1.15,2013-02-04 23:04:00,
2013-02-04 18:09:00,64.2,40.0,30.07,NE,46,0.0,0.0,41,0.00,,,0.00,Wunderground v.1.15,2013-02-04 23:09:00,
2013-02-04 18:14:00,63.5,41.2,30.07,NE,46,0.0,0.0,44,0.00,,,0.00,Wunderground v.1.15,2013-02-04 23:14:00,
2013-02-04 18:19:00,62.9,40.6,30.07,NE,46,0.0,0.0,44,0.00,,,0.00,Wunderground v.1.15,2013-02-04 23:19:00,
2013-02-04 18:24:00,62.3,40.1,30.07,NE,46,0.0,0.0,44,0.00,,,0.00,Wunderground v.1.15,2013-02-04 23:24:00,
2013-02-04 18:29:00,61.8,40.2,30.07,NE,46,0.0,0.0,45,0.00,,,0.00,Wunderground v.1.15,2013-02-04 23:29:00,
2013-02-04 18:34:00,61.3,39.8,30.08,NE,46,0.0,0.0,45,0.00,,,0.00,Wunderground v.1.15,2013-02-04 23:34:00,
2013-02-04 18:39:00,61.0,39.5,30.08,NE,46,0.0,0.0,45,0.00,,,0.00,Wunderground v.1.15,2013-02-04 23:39:00,
2013-02-04 18:44:00,60.7,39.8,30.08,NE,46,0.0,0.0,46,0.00,,,0.00,Wunderground v.1.15,2013-02-04 23:44:00,
2013-02-04 18:49:00,60.5,39.6,30.08,NE,46,0.0,0.0,46,0.00,,,0.00,Wunderground v.1.15,2013-02-04 23:49:00,
2013-02-04 18:54:00,60.3,40.5,30.08,NE,46,0.0,0.0,48,0.00,,,0.00,Wunderground v.1.15,2013-02-04 23:54:00,
2013-02-04 18:59:00,59.9,39.6,30.07,NE,46,0.0,2.0,47,0.00,,,0.00,Wunderground v.1.15,2013-02-04 23:59:00,
2013-02-04 19:04:00,59.6,38.8,30.07,NE,46,0.0,1.0,46,0.00,,,0.00,Wunderground v.1.15,2013-02-05 00:04:00,
2013-02-04 19:10:00,59.3,39.1,30.07,NE,46,0.0,3.0,47,0.00,,,0.00,Wunderground v.1.15,2013-02-05 00:10:00,
2013-02-04 19:15:00,59.0,39.9,30.07,NE,46,1.0,1.0,49,0.00,,,0.00,Wunderground v.1.15,2013-02-05 00:15:00,
2013-02-04 19:20:00,58.7,39.0,30.07,NE,46,0.0,1.0,48,0.00,,,0.00,Wunderground v.1.15,2013-02-05 00:20:00,
2013-02-04 19:25:00,58.5,39.4,30.07,NE,46,0.0,1.0,49,0.00,,,0.00,Wunderground v.1.15,2013-02-05 00:25:00,
2013-02-04 19:30:00,58.4,38.8,30.07,NE,46,0.0,2.0,48,0.00,,,0.00,Wunderground v.1.15,2013-02-05 00:30:00,
2013-02-04 19:35:00,58.6,38.4,30.06,NE,46,0.0,2.0,47,0.00,,,0.00,Wunderground v.1.15,2013-02-05 00:35:00,
2013-02-04 19:40:00,58.7,38.0,30.07,NE,46,0.0,2.0,46,0.00,,,0.00,Wunderground v.1.15,2013-02-05 00:40:00,
2013-02-04 19:45:00,58.5,39.4,30.07,NE,46,0.0,0.0,49,0.00,,,0.00,Wunderground v.1.15,2013-02-05 00:45:00,
2013-02-04 19:50:00,57.7,39.2,30.07,NE,46,1.0,1.0,50,0.00,,,0.00,Wunderground v.1.15,2013-02-05 00:50:00,
2013-02-04 19:55:00,57.3,39.3,30.07,NE,46,0.0,1.0,51,0.00,,,0.00,Wunderground v.1.15,2013-02-05 00:55:00,
2013-02-04 20:00:00,57.4,39.4,30.07,NE,46,0.0,1.0,51,0.00,,,0.00,Wunderground v.1.15,2013-02-05 01:00:00,
2013-02-04 20:05:00,57.3,38.8,30.07,NE,46,0.0,0.0,50,0.00,,,0.00,Wunderground v.1.15,2013-02-05 01:05:00,
2013-02-04 20:10:00,57.2,38.7,30.07,NE,46,0.0,0.0,50,0.00,,,0.00,Wunderground v.1.15,2013-02-05 01:10:00,
2013-02-04 20:15:00,57.1,39.6,30.07,NE,46,0.0,0.0,52,0.00,,,0.00,Wunderground v.1.15,2013-02-05 01:15:00,
2013-02-04 20:20:00,57.0,41.0,30.08,NE,46,0.0,0.0,55,0.00,,,0.00,Wunderground v.1.15,2013-02-05 01:20:00,
2013-02-04 20:25:00,56.8,39.8,30.08,NE,46,0.0,0.0,53,0.00,,,0.00,Wunderground v.1.15,2013-02-05 01:25:00,
2013-02-04 20:30:00,56.4,39.5,30.08,NE,46,0.0,0.0,53,0.00,,,0.00,Wunderground v.1.15,2013-02-05 01:30:00,
2013-02-04 20:35:00,55.8,39.4,30.08,NE,46,0.0,1.0,54,0.00,,,0.00,Wunderground v.1.15,2013-02-05 01:35:00,
2013-02-04 20:40:00,55.5,39.6,30.08,NE,46,0.0,1.0,55,0.00,,,0.00,Wunderground v.1.15,2013-02-05 01:40:00,
2013-02-04 20:45:00,55.1,39.7,30.08,NE,46,0.0,1.0,56,0.00,,,0.00,Wunderground v.1.15,2013-02-05 01:45:00,
2013-02-04 20:50:00,54.5,39.6,30.08,NE,46,0.0,1.0,57,0.00,,,0.00,Wunderground v.1.15,2013-02-05 01:50:00,
2013-02-04 20:55:00,54.0,39.5,30.08,NE,46,0.0,0.0,58,0.00,,,0.00,Wunderground v.1.15,2013-02-05 01:55:00,
2013-02-04 21:00:00,53.8,39.8,30.08,NE,46,0.0,0.0,59,0.00,,,0.00,Wunderground v.1.15,2013-02-05 02:00:00,
2013-02-04 21:05:00,53.8,40.2,30.08,NE,46,0.0,1.0,60,0.00,,,0.00,Wunderground v.1.15,2013-02-05 02:05:00,
2013-02-04 21:10:00,53.8,41.1,30.08,NE,46,0.0,1.0,62,0.00,,,0.00,Wunderground v.1.15,2013-02-05 02:10:00,
2013-02-04 21:15:00,53.7,40.1,30.08,NE,46,0.0,0.0,60,0.00,,,0.00,Wunderground v.1.15,2013-02-05 02:15:00,
2013-02-04 21:20:00,53.4,40.3,30.08,NE,46,0.0,0.0,61,0.00,,,0.00,Wunderground v.1.15,2013-02-05 02:20:00,
2013-02-04 21:25:00,53.2,40.1,30.09,NE,46,0.0,0.0,61,0.00,,,0.00,Wunderground v.1.15,2013-02-05 02:25:00,
2013-02-04 21:30:00,52.9,39.8,30.09,NE,46,0.0,0.0,61,0.00,,,0.00,Wunderground v.1.15,2013-02-05 02:30:00,
2013-02-04 21:35:00,52.7,39.6,30.09,NE,46,0.0,0.0,61,0.00,,,0.00,Wunderground v.1.15,2013-02-05 02:35:00,
2013-02-04 21:40:00,52.5,39.4,30.09,NE,46,0.0,0.0,61,0.00,,,0.00,Wunderground v.1.15,2013-02-05 02:40:00,
2013-02-04 21:45:00,52.3,39.2,30.09,NE,46,0.0,0.0,61,0.00,,,0.00,Wunderground v.1.15,2013-02-05 02:45:00,
2013-02-04 21:50:00,52.2,39.1,30.09,NE,46,0.0,0.0,61,0.00,,,0.00,Wunderground v.1.15,2013-02-05 02:50:00,
2013-02-04 21:55:00,52.1,39.1,30.09,NE,46,0.0,0.0,61,0.00,,,0.00,Wunderground v.1.15,2013-02-05 02:55:00,
2013-02-04 22:00:00,52.1,39.1,30.09,NE,46,0.0,1.0,61,0.00,,,0.00,Wunderground v.1.15,2013-02-05 03:00:00,
2013-02-04 22:05:00,52.1,39.1,30.10,NE,46,0.0,0.0,61,0.00,,,0.00,Wunderground v.1.15,2013-02-05 03:05:00,
2013-02-04 22:10:00,52.0,39.0,30.10,NE,46,0.0,0.0,61,0.00,,,0.00,Wunderground v.1.15,2013-02-05 03:10:00,
2013-02-04 22:15:00,52.0,39.0,30.10,NE,46,0.0,0.0,61,0.00,,,0.00,Wunderground v.1.15,2013-02-05 03:15:00,
2013-02-04 22:20:00,51.9,38.9,30.09,NE,46,0.0,0.0,61,0.00,,,0.00,Wunderground v.1.15,2013-02-05 03:20:00,
2013-02-04 22:26:00,51.9,38.9,30.10,NE,46,0.0,1.0,61,0.00,,,0.00,Wunderground v.1.15,2013-02-05 03:26:00,
2013-02-04 22:31:00,51.8,39.2,30.10,NE,46,0.0,1.0,62,0.00,,,0.00,Wunderground v.1.15,2013-02-05 03:31:00,
2013-02-04 22:36:00,50.8,39.5,30.10,NE,46,3.0,3.0,65,0.00,,,0.00,Wunderground v.1.15,2013-02-05 03:36:00,
2013-02-04 22:41:00,50.0,40.2,30.10,NE,46,0.0,4.0,69,0.00,,,0.00,Wunderground v.1.15,2013-02-05 03:41:00,
2013-02-04 22:46:00,49.7,39.2,30.10,NE,46,0.0,2.0,67,0.00,,,0.00,Wunderground v.1.15,2013-02-05 03:46:00,
2013-02-04 22:51:00,49.5,39.4,30.10,NE,46,0.0,2.0,68,0.00,,,0.00,Wunderground v.1.15,2013-02-05 03:51:00,
2013-02-04 22:56:00,49.5,39.0,30.10,NE,46,0.0,0.0,67,0.00,,,0.00,Wunderground v.1.15,2013-02-05 03:56:00,
2013-02-04 23:01:00,49.5,39.0,30.10,NE,46,0.0,0.0,67,0.00,,,0.00,Wunderground v.1.15,2013-02-05 04:01:00,
2013-02-04 23:06:00,49.6,39.5,30.10,NE,46,0.0,0.0,68,0.00,,,0.00,Wunderground v.1.15,2013-02-05 04:06:00,
2013-02-04 23:11:00,49.8,39.7,30.10,NE,46,0.0,0.0,68,0.00,,,0.00,Wunderground v.1.15,2013-02-05 04:11:00,
2013-02-04 23:16:00,49.9,39.8,30.11,NE,46,0.0,0.0,68,0.00,,,0.00,Wunderground v.1.15,2013-02-05 04:16:00,
2013-02-04 23:21:00,49.9,39.4,30.11,NE,46,0.0,1.0,67,0.00,,,0.00,Wunderground v.1.15,2013-02-05 04:21:00,
2013-02-04 23:26:00,49.6,39.1,30.11,NE,46,0.0,0.0,67,0.00,,,0.00,Wunderground v.1.15,2013-02-05 04:26:00,
2013-02-04 23:31:00,49.3,39.6,30.11,NE,46,0.0,0.0,69,0.00,,,0.00,Wunderground v.1.15,2013-02-05 04:31:00,
2013-02-04 23:36:00,49.2,39.5,30.10,NE,46,0.0,0.0,69,0.00,,,0.00,Wunderground v.1.15,2013-02-05 04:36:00,
2013-02-04 23:41:00,48.9,39.2,30.10,NE,46,0.0,0.0,69,0.00,,,0.00,Wunderground v.1.15,2013-02-05 04:41:00,
2013-02-04 23:46:00,48.6,39.6,30.10,NE,46,0.0,1.0,71,0.00,,,0.00,Wunderground v.1.15,2013-02-05 04:46:00,
2013-02-04 23:51:00,48.5,39.9,30.10,NE,46,0.0,0.0,72,0.00,,,0.00,Wunderground v.1.15,2013-02-05 04:51:00,
2013-02-04 23:56:00,47.9,40.0,30.10,NE,46,1.0,1.0,74,0.00,,,0.00,Wunderground v.1.15,2013-02-05 04:56:00,